Time;durP1;ratioP1;P1;durP2;ratioP2;P2;SDS_P1;SDS_P2;PMS_P1;PMS_P2;Temp;Humidity;BMP_temperature;BMP_pressure;BME280_temperature;BME280_humidity;BME280_pressure;Samples;Min_cycle;Max_cycle;Signal;HPM_P1;HPM_P2
2021/05/26 00:01:50;;;;;;;3.83;1.00;;;;;;;14.01;45.65;96754.06;5048074;28;20302;-68
2021/05/26 00:04:15;;;;;;;5.70;1.23;;;;;;;13.92;46.18;96754.19;5050742;28;20731;-67
2021/05/26 00:06:41;;;;;;;2.27;1.03;;;;;;;13.94;45.98;96751.34;5051365;28;20174;-68
2021/05/26 00:09:07;;;;;;;1.83;0.87;;;;;;;14.01;45.87;96751.44;5051014;28;20187;-68
2021/05/26 00:11:32;;;;;;;2.30;1.30;;;;;;;13.87;46.55;96745.22;5051349;28;20228;-68
2021/05/26 00:13:58;;;;;;;4.63;1.00;;;;;;;13.88;46.79;96752.91;5053449;28;20202;-67
2021/05/26 00:16:25;;;;;;;2.63;0.97;;;;;;;13.89;46.55;96738.75;5055434;28;20182;-67
2021/05/26 00:18:51;;;;;;;3.53;1.33;;;;;;;13.62;47.63;96735.78;5037753;28;20183;-68
2021/05/26 00:21:17;;;;;;;2.10;1.00;;;;;;;13.72;47.73;96737.34;5054965;28;20445;-69
2021/05/26 00:23:43;;;;;;;2.67;1.10;;;;;;;13.70;47.71;96734.06;5054598;28;20437;-67
2021/05/26 00:26:09;;;;;;;1.57;1.00;;;;;;;13.76;47.54;96731.50;5055356;28;20813;-67
2021/05/26 00:28:34;;;;;;;2.43;1.03;;;;;;;14.06;46.63;96725.38;5055467;28;20171;-66
2021/05/26 00:31:00;;;;;;;5.50;1.30;;;;;;;13.70;47.72;96734.06;5051348;28;20176;-68
2021/05/26 00:33:27;;;;;;;2.63;1.00;;;;;;;13.98;47.13;96721.84;5055330;28;20190;-67
2021/05/26 00:35:52;;;;;;;4.07;1.30;;;;;;;14.12;46.65;96716.69;5054889;28;20429;-68
2021/05/26 00:38:20;;;;;;;6.90;1.20;;;;;;;14.05;46.78;96721.91;5053619;28;20798;-67
2021/05/26 00:40:47;;;;;;;3.40;0.90;;;;;;;14.03;47.29;96718.66;5055021;28;20234;-66
2021/05/26 00:43:17;;;;;;;4.90;1.20;;;;;;;14.26;46.39;96712.41;5054806;28;20944;-66
2021/05/26 00:45:43;;;;;;;1.30;0.80;;;;;;;14.22;46.32;96703.22;5048764;28;20941;-67
2021/05/26 00:48:09;;;;;;;4.73;1.07;;;;;;;14.14;46.68;96698.88;5053152;28;20429;-67
2021/05/26 00:50:37;;;;;;;1.40;1.00;;;;;;;14.11;46.85;96689.53;5053556;28;20422;-67
2021/05/26 00:53:05;;;;;;;1.10;0.90;;;;;;;14.08;46.71;96687.28;5055244;28;20429;-67
2021/05/26 00:55:31;;;;;;;3.53;1.00;;;;;;;14.06;46.89;96704.28;5057003;28;20437;-68
2021/05/26 00:57:58;;;;;;;3.50;1.17;;;;;;;14.11;46.68;96702.72;5058642;28;20457;-68
2021/05/26 01:00:25;;;;;;;2.80;1.23;;;;;;;14.21;46.23;96699.78;5058034;28;20175;-67
2021/05/26 01:02:51;;;;;;;2.60;1.10;;;;;;;14.36;45.79;96706.81;5050515;28;20820;-68
2021/05/26 01:05:19;;;;;;;3.20;1.00;;;;;;;14.28;46.13;96715.66;5055255;28;20417;-67
2021/05/26 01:07:45;;;;;;;2.50;1.00;;;;;;;14.07;46.95;96706.72;5055546;28;20496;-66
2021/05/26 01:10:13;;;;;;;2.37;1.40;;;;;;;14.12;47.30;96719.34;5058234;28;20506;-69
2021/05/26 01:12:39;;;;;;;5.03;0.90;;;;;;;13.92;48.63;96714.69;5066969;28;20184;-68
2021/05/26 01:15:08;;;;;;;2.90;1.10;;;;;;;13.61;49.39;96717.53;5056878;28;20518;-68
2021/05/26 01:17:34;;;;;;;2.87;0.97;;;;;;;13.49;50.30;96718.00;5055347;28;20173;-67
2021/05/26 01:20:06;;;;;;;3.33;1.07;;;;;;;13.32;50.62;96713.91;5054386;28;20479;-66
2021/05/26 01:22:31;;;;;;;1.73;1.03;;;;;;;13.32;51.49;96701.56;5053368;28;21006;-67
2021/05/26 01:24:57;;;;;;;1.60;1.00;;;;;;;13.16;52.31;96697.31;5054032;28;20437;-66
2021/05/26 01:27:23;;;;;;;1.83;1.30;;;;;;;13.13;53.11;96702.09;5054685;28;20182;-67
2021/05/26 01:29:50;;;;;;;2.63;1.27;;;;;;;12.78;54.20;96699.97;5053363;28;20304;-66
2021/05/26 01:32:17;;;;;;;2.43;1.13;;;;;;;12.57;54.79;96692.78;5040708;28;20438;-67
2021/05/26 01:34:43;;;;;;;2.63;1.20;;;;;;;11.95;56.15;96697.13;5036438;28;20452;-67
2021/05/26 01:37:09;;;;;;;1.93;0.90;;;;;;;12.58;54.88;96692.59;5053209;28;20427;-68
2021/05/26 01:39:35;;;;;;;3.67;2.20;;;;;;;12.85;54.35;96689.56;5054750;28;20191;-66
2021/05/26 01:42:00;;;;;;;2.17;1.13;;;;;;;12.90;54.28;96692.47;5053590;28;20284;-67
2021/05/26 01:44:27;;;;;;;2.50;1.03;;;;;;;12.56;55.90;96678.00;5054074;28;20207;-67
2021/05/26 01:46:53;;;;;;;6.33;1.50;;;;;;;12.85;54.80;96663.28;5054041;28;20182;-66
2021/05/26 01:49:19;;;;;;;3.10;1.53;;;;;;;12.91;54.47;96667.81;5052183;28;20516;-66
2021/05/26 01:51:44;;;;;;;1.90;0.87;;;;;;;13.09;53.95;96659.56;5052237;28;20266;-68
2021/05/26 01:54:11;;;;;;;3.63;0.80;;;;;;;12.90;54.04;96653.00;5051692;28;20215;-68
2021/05/26 01:56:37;;;;;;;1.83;0.90;;;;;;;12.70;54.21;96655.34;5053669;28;20186;-67
2021/05/26 01:59:02;;;;;;;2.10;0.97;;;;;;;12.90;54.00;96651.22;5053469;28;20422;-68
2021/05/26 02:01:28;;;;;;;1.90;1.20;;;;;;;12.88;54.56;96658.47;5049134;28;20449;-67
2021/05/26 02:03:54;;;;;;;2.20;1.10;;;;;;;12.81;54.73;96651.47;5053227;28;20275;-67
2021/05/26 02:06:21;;;;;;;1.67;1.00;;;;;;;12.93;54.39;96644.78;5045044;28;20212;-67
2021/05/26 02:08:50;;;;;;;3.30;0.93;;;;;;;12.71;54.80;96642.03;5053488;28;20613;-66
2021/05/26 02:14:06;;;;;;;7.03;1.40;;;;;;;12.69;55.30;96640.56;5052904;28;20444;-67
2021/05/26 02:16:32;;;;;;;1.77;1.00;;;;;;;12.63;54.96;96636.03;5053728;28;20430;-66
2021/05/26 02:18:58;;;;;;;2.80;0.80;;;;;;;12.74;54.98;96630.34;5051991;28;20849;-66
2021/05/26 02:21:23;;;;;;;2.70;1.10;;;;;;;12.51;55.56;96640.91;5053259;28;20464;-66
2021/05/26 02:23:49;;;;;;;1.70;1.00;;;;;;;12.59;55.36;96633.75;5053137;28;20206;-67
2021/05/26 02:26:15;;;;;;;3.77;1.30;;;;;;;12.38;55.72;96642.31;5053188;28;20187;-66
2021/05/26 02:28:41;;;;;;;1.80;0.80;;;;;;;12.48;55.82;96633.38;5053524;28;20205;-67
2021/05/26 02:31:07;;;;;;;4.03;1.47;;;;;;;12.20;56.29;96633.94;5047758;28;20204;-67
2021/05/26 02:33:34;;;;;;;4.20;1.60;;;;;;;12.47;55.69;96619.41;5052716;28;20444;-67
2021/05/26 02:35:59;;;;;;;6.43;1.47;;;;;;;12.35;55.88;96624.28;5052705;28;20440;-68
2021/05/26 02:38:25;;;;;;;1.73;1.13;;;;;;;12.56;55.20;96620.16;5051291;28;20421;-67
2021/05/26 02:40:50;;;;;;;9.57;1.17;;;;;;;12.69;55.05;96625.63;5051362;28;20222;-67
2021/05/26 02:43:16;;;;;;;4.40;1.20;;;;;;;12.65;55.32;96628.78;5052481;28;20199;-67
2021/05/26 02:45:42;;;;;;;2.83;1.70;;;;;;;12.43;56.06;96633.91;5053286;28;20183;-67
2021/05/26 02:48:08;;;;;;;3.43;1.30;;;;;;;12.50;56.21;96642.72;5052330;28;20183;-67
2021/05/26 02:50:34;;;;;;;2.03;1.00;;;;;;;12.32;57.58;96653.56;5051026;28;20228;-68
2021/05/26 02:52:59;;;;;;;2.60;1.17;;;;;;;12.33;57.94;96649.09;5052325;28;20181;-67
2021/05/26 02:55:26;;;;;;;3.10;1.27;;;;;;;11.99;59.38;96653.78;5048917;28;20913;-68
2021/05/26 02:57:52;;;;;;;3.47;1.60;;;;;;;12.17;59.16;96640.34;5048363;28;20183;-67
2021/05/26 03:00:20;;;;;;;4.43;1.47;;;;;;;11.83;60.53;96639.75;5051224;28;20429;-67
2021/05/26 03:02:46;;;;;;;2.70;1.00;;;;;;;12.22;59.44;96637.22;5048558;28;20482;-66
2021/05/26 03:05:13;;;;;;;2.37;1.00;;;;;;;11.97;59.95;96635.56;5048376;28;20536;-66
2021/05/26 03:07:39;;;;;;;3.60;1.30;;;;;;;12.12;60.46;96630.38;5052161;28;20179;-66
2021/05/26 03:10:07;;;;;;;2.83;1.20;;;;;;;12.39;59.32;96628.19;5047856;28;20425;-67
2021/05/26 03:12:33;;;;;;;4.13;1.27;;;;;;;12.21;60.31;96627.72;5032193;28;20427;-67
2021/05/26 03:14:58;;;;;;;3.47;1.40;;;;;;;12.14;60.10;96620.53;5040196;28;20805;-65
2021/05/26 03:17:28;;;;;;;3.37;2.50;;;;;;;12.02;60.52;96616.66;5052135;28;20630;-67
2021/05/26 03:19:56;;;;;;;4.87;1.67;;;;;;;12.18;60.50;96615.72;5037509;28;20282;-67
2021/05/26 03:22:22;;;;;;;3.70;1.50;;;;;;;12.11;60.85;96612.97;5047922;28;21035;-69
2021/05/26 03:24:48;;;;;;;2.40;1.60;;;;;;;11.98;60.62;96610.97;5030148;28;20508;-66
2021/05/26 03:27:13;;;;;;;2.67;1.40;;;;;;;12.08;60.41;96605.47;5031519;28;20437;-67
2021/05/26 03:29:39;;;;;;;1.63;1.10;;;;;;;11.64;61.28;96606.06;5031896;28;20176;-65
2021/05/26 03:32:05;;;;;;;2.70;1.10;;;;;;;12.21;59.95;96604.06;5031773;28;20179;-66
2021/05/26 03:34:30;;;;;;;5.13;1.40;;;;;;;12.00;59.99;96604.72;5039809;28;20269;-68
2021/05/26 03:36:56;;;;;;;3.30;1.60;;;;;;;12.17;59.50;96608.03;5030262;28;20186;-67
2021/05/26 03:39:22;;;;;;;8.20;1.53;;;;;;;12.12;59.28;96603.31;5031339;28;20175;-65
2021/05/26 03:41:47;;;;;;;3.80;2.33;;;;;;;12.37;58.96;96593.38;5030294;28;20207;-66
2021/05/26 03:44:13;;;;;;;4.47;1.37;;;;;;;12.30;59.50;96600.38;5031397;28;20235;-66
2021/05/26 03:46:38;;;;;;;1.70;1.27;;;;;;;11.95;60.13;96597.34;5037558;28;20541;-67
2021/05/26 03:49:05;;;;;;;3.03;1.30;;;;;;;12.40;59.06;96587.78;5032193;28;20179;-67
2021/05/26 03:51:31;;;;;;;1.60;1.30;;;;;;;12.38;59.02;96584.50;5033383;28;20535;-67
2021/05/26 03:53:57;;;;;;;8.93;2.50;;;;;;;12.39;59.24;96591.41;5031510;28;20446;-68
2021/05/26 03:56:22;;;;;;;8.80;3.73;;;;;;;12.49;58.99;96579.81;5021682;28;20497;-66
2021/05/26 03:58:48;;;;;;;4.73;1.57;;;;;;;12.51;58.93;96580.44;5031955;28;20210;-67
2021/05/26 04:01:14;;;;;;;4.53;1.60;;;;;;;12.35;59.80;96574.34;5029856;28;20684;-67
2021/05/26 04:03:39;;;;;;;4.00;1.50;;;;;;;12.47;59.50;96568.69;5031383;28;20207;-67
2021/05/26 04:06:05;;;;;;;6.40;1.60;;;;;;;12.18;60.12;96578.94;5031234;28;20539;-66
2021/05/26 04:08:31;;;;;;;1.97;1.13;;;;;;;12.33;60.11;96581.63;5031617;28;20259;-66
2021/05/26 04:10:56;;;;;;;4.93;1.40;;;;;;;12.22;60.41;96574.19;5030037;28;20626;-67
2021/05/26 04:13:22;;;;;;;5.97;1.33;;;;;;;12.18;60.36;96573.69;5030994;28;20226;-67
2021/05/26 04:15:47;;;;;;;3.20;1.50;;;;;;;12.13;60.96;96576.06;5031548;28;20183;-67
2021/05/26 04:18:13;;;;;;;5.13;1.67;;;;;;;12.09;60.22;96586.09;5030952;28;20569;-66
2021/05/26 04:20:38;;;;;;;5.13;1.30;;;;;;;12.24;60.41;96580.88;5033502;28;20635;-67
2021/05/26 04:23:05;;;;;;;5.50;1.60;;;;;;;12.19;60.61;96591.09;5031392;28;20183;-67
2021/05/26 04:25:30;;;;;;;4.97;1.50;;;;;;;11.69;62.58;96577.50;5029539;28;20209;-66
2021/05/26 04:27:56;;;;;;;6.43;1.60;;;;;;;12.00;62.03;96575.84;5031432;28;20477;-67
2021/05/26 04:30:22;;;;;;;4.13;1.53;;;;;;;11.94;61.94;96574.69;5031030;28;20183;-67
2021/05/26 04:32:48;;;;;;;6.67;1.63;;;;;;;12.30;60.83;96579.34;5031399;28;20545;-68
2021/05/26 04:35:14;;;;;;;3.30;1.50;;;;;;;11.97;62.04;96566.47;5030566;28;20446;-66
2021/05/26 04:37:40;;;;;;;4.67;1.33;;;;;;;12.21;61.74;96572.53;5030824;28;20187;-66
2021/05/26 04:40:06;;;;;;;4.47;1.93;;;;;;;12.26;62.10;96567.56;5030999;28;20423;-67
2021/05/26 04:42:32;;;;;;;3.23;1.47;;;;;;;12.27;62.13;96566.56;5031663;28;20298;-67
2021/05/26 04:44:57;;;;;;;4.80;1.33;;;;;;;12.13;62.33;96563.72;5030650;28;20569;-67
2021/05/26 04:47:23;;;;;;;5.43;2.20;;;;;;;12.40;61.74;96548.38;5029813;28;20694;-66
2021/05/26 04:49:49;;;;;;;3.90;1.70;;;;;;;12.26;62.50;96554.41;5032601;28;20188;-66
2021/05/26 04:52:14;;;;;;;5.47;2.00;;;;;;;12.43;62.12;96553.28;5030667;28;20535;-67
2021/05/26 04:54:40;;;;;;;4.97;1.80;;;;;;;12.27;63.00;96556.06;5030296;28;20203;-67
2021/05/26 04:57:06;;;;;;;5.70;1.50;;;;;;;12.49;62.19;96553.53;5030892;28;20677;-68
2021/05/26 04:59:31;;;;;;;3.70;1.80;;;;;;;12.41;63.65;96546.56;5041311;28;20433;-67
2021/05/26 05:01:57;;;;;;;5.67;1.50;;;;;;;12.22;64.07;96553.16;5032993;28;20272;-67
2021/05/26 05:04:23;;;;;;;3.73;1.60;;;;;;;12.35;63.38;96555.97;5043924;28;20215;-66
2021/05/26 05:06:49;;;;;;;2.60;1.70;;;;;;;12.29;63.59;96544.34;5034674;28;20180;-65
2021/05/26 05:09:14;;;;;;;2.93;1.63;;;;;;;12.48;63.83;96546.63;5034232;28;20210;-66
2021/05/26 05:11:40;;;;;;;4.97;1.63;;;;;;;12.29;63.71;96554.06;5034808;28;20183;-67
2021/05/26 05:14:05;;;;;;;6.13;1.73;;;;;;;12.29;64.52;96560.13;5034557;28;20206;-67
2021/05/26 05:16:32;;;;;;;3.30;1.67;;;;;;;12.27;64.71;96556.88;5034478;28;20179;-66
2021/05/26 05:18:58;;;;;;;3.57;1.37;;;;;;;12.41;64.82;96557.09;5034850;28;20210;-67
2021/05/26 05:21:24;;;;;;;5.70;1.77;;;;;;;12.17;65.63;96548.41;5031962;28;20864;-67
2021/05/26 05:23:49;;;;;;;2.83;1.67;;;;;;;12.11;65.83;96536.81;5016043;28;20203;-67
2021/05/26 05:26:15;;;;;;;3.03;1.60;;;;;;;12.27;65.18;96535.88;5053217;28;20179;-66
2021/05/26 05:28:41;;;;;;;6.73;2.10;;;;;;;12.58;64.69;96527.00;5055080;28;20244;-66
2021/05/26 05:31:06;;;;;;;3.67;1.80;;;;;;;12.44;64.32;96525.16;5046317;28;20738;-67
2021/05/26 05:33:32;;;;;;;4.63;1.70;;;;;;;12.61;64.29;96528.44;5054207;28;20198;-67
2021/05/26 05:35:57;;;;;;;8.70;1.67;;;;;;;12.46;64.61;96530.25;5060874;28;20194;-68
2021/05/26 05:38:23;;;;;;;4.30;1.60;;;;;;;12.57;64.50;96527.97;5066086;28;20190;-67
2021/05/26 05:40:49;;;;;;;5.20;1.80;;;;;;;12.44;65.42;96527.78;5062188;28;20661;-66
2021/05/26 05:43:17;;;;;;;4.50;2.17;;;;;;;12.26;65.97;96528.97;5052108;28;20191;-66
2021/05/26 05:45:43;;;;;;;2.10;1.30;;;;;;;12.46;65.18;96533.69;5049680;28;20240;-66
2021/05/26 05:48:09;;;;;;;2.73;1.70;;;;;;;12.22;65.85;96532.16;5054273;28;20430;-66
2021/05/26 05:50:35;;;;;;;3.80;1.60;;;;;;;12.27;65.90;96543.75;5059086;28;20428;-67
2021/05/26 05:53:01;;;;;;;5.50;1.90;;;;;;;12.33;65.88;96544.84;5064368;28;20261;-67
2021/05/26 05:55:26;;;;;;;3.57;1.60;;;;;;;12.05;67.22;96515.69;5063658;28;20467;-67
2021/05/26 05:57:53;;;;;;;2.40;1.70;;;;;;;12.31;66.61;96525.81;5059140;28;20206;-67
2021/05/26 06:00:20;;;;;;;3.50;1.50;;;;;;;12.18;66.30;96536.91;5046098;28;20191;-68
2021/05/26 06:02:46;;;;;;;2.60;1.40;;;;;;;12.16;66.38;96523.13;5053878;28;20464;-67
2021/05/26 06:05:13;;;;;;;5.03;1.77;;;;;;;12.31;66.31;96531.06;5053527;28;20452;-67
2021/05/26 06:07:38;;;;;;;2.03;1.27;;;;;;;12.56;65.70;96520.28;5053758;28;20482;-66
2021/05/26 06:10:04;;;;;;;2.80;1.33;;;;;;;12.21;66.09;96520.00;5053006;28;20508;-68
2021/05/26 06:12:30;;;;;;;2.90;1.60;;;;;;;12.43;65.91;96528.78;5052226;28;20721;-68
2021/05/26 06:14:55;;;;;;;8.07;1.80;;;;;;;12.59;65.59;96522.56;5044964;28;20457;-66
2021/05/26 06:17:21;;;;;;;4.93;1.60;;;;;;;12.83;65.36;96518.00;5045634;28;20217;-66
2021/05/26 06:19:46;;;;;;;3.47;1.60;;;;;;;12.73;65.19;96515.66;5052043;28;20183;-67
2021/05/26 06:22:12;;;;;;;4.60;1.53;;;;;;;12.61;65.05;96504.78;5051135;28;20206;-67
2021/05/26 06:24:38;;;;;;;4.60;1.90;;;;;;;12.92;65.02;96514.28;5045570;28;20210;-66
2021/05/26 06:27:03;;;;;;;5.47;1.93;;;;;;;12.91;65.66;96499.50;5051344;28;20179;-66
2021/05/26 06:29:29;;;;;;;3.10;1.50;;;;;;;13.00;65.10;96508.09;5053285;28;20183;-66
2021/05/26 06:31:56;;;;;;;3.33;1.60;;;;;;;12.99;65.17;96506.47;5055119;28;20179;-67
2021/05/26 06:34:21;;;;;;;8.57;1.97;;;;;;;13.23;64.99;96507.13;5058674;28;20214;-66
2021/05/26 06:36:47;;;;;;;9.90;2.67;;;;;;;12.85;65.67;96510.75;5063344;28;20425;-68
2021/05/26 06:39:12;;;;;;;3.27;2.10;;;;;;;12.59;66.55;96517.31;5056054;28;20598;-68
2021/05/26 06:41:38;;;;;;;2.50;1.77;;;;;;;11.71;68.93;96525.66;5053720;28;20222;-68
2021/05/26 06:44:04;;;;;;;6.17;1.90;;;;;;;12.18;67.72;96509.84;5052696;28;20206;-67
2021/05/26 06:46:29;;;;;;;4.77;1.60;;;;;;;12.38;66.40;96516.19;5052081;28;20186;-67
2021/05/26 06:48:55;;;;;;;8.50;1.97;;;;;;;11.30;69.58;96502.31;5053985;28;20260;-66
2021/05/26 06:51:21;;;;;;;4.57;2.20;;;;;;;12.26;68.28;96502.69;5050386;28;20209;-67
2021/05/26 06:53:47;;;;;;;7.93;2.97;;;;;;;12.66;66.98;96497.16;5052933;28;20273;-66
2021/05/26 06:56:12;;;;;;;6.13;2.17;;;;;;;12.39;66.02;96493.38;5051795;28;20425;-67
2021/05/26 06:58:40;;;;;;;4.90;2.20;;;;;;;12.65;66.07;96490.28;5047818;28;20262;-67
2021/05/26 07:01:07;;;;;;;3.27;2.10;;;;;;;12.69;65.96;96491.56;5052280;28;20217;-68
2021/05/26 07:03:32;;;;;;;9.60;2.67;;;;;;;12.99;65.17;96491.47;5051986;28;20495;-67
2021/05/26 07:05:58;;;;;;;7.90;2.10;;;;;;;13.17;64.30;96477.91;5052621;28;20525;-66
2021/05/26 07:08:23;;;;;;;8.90;2.70;;;;;;;13.25;64.19;96474.34;5051814;28;20183;-67
2021/05/26 07:10:49;;;;;;;6.70;2.67;;;;;;;13.25;63.94;96469.09;5048154;28;20191;-67
2021/05/26 07:13:15;;;;;;;4.67;1.80;;;;;;;13.17;64.05;96471.84;5052541;28;20610;-67
2021/05/26 07:15:40;;;;;;;6.70;2.30;;;;;;;13.49;63.79;96480.28;5051238;28;20781;-67
2021/05/26 07:18:07;;;;;;;5.00;2.13;;;;;;;13.32;64.34;96484.94;5052519;28;20290;-66
2021/05/26 07:20:33;;;;;;;5.00;1.97;;;;;;;13.18;64.92;96478.75;5052449;28;20175;-67
2021/05/26 07:22:59;;;;;;;3.93;2.17;;;;;;;12.84;65.59;96482.84;5052437;28;20545;-67
2021/05/26 07:25:25;;;;;;;6.37;2.30;;;;;;;12.86;66.25;96484.28;5051095;28;20199;-66
2021/05/26 07:27:50;;;;;;;2.90;1.83;;;;;;;12.88;64.76;96479.66;5053288;28;20438;-69
2021/05/26 07:30:17;;;;;;;5.70;2.00;;;;;;;12.69;64.62;96481.03;5044864;28;20513;-67
2021/05/26 07:32:43;;;;;;;8.63;2.40;;;;;;;12.69;64.54;96480.19;5027746;28;20611;-66
2021/05/26 07:35:09;;;;;;;3.50;2.00;;;;;;;12.47;64.23;96472.25;5042276;28;20469;-65
2021/05/26 07:37:35;;;;;;;6.07;2.20;;;;;;;12.59;63.39;96475.25;5039597;28;20638;-65
2021/05/26 07:40:01;;;;;;;4.13;1.87;;;;;;;12.80;63.84;96482.38;5049824;28;20491;-65
2021/05/26 07:42:27;;;;;;;3.87;2.20;;;;;;;11.81;65.17;96476.34;5050767;28;20461;-65
2021/05/26 07:44:52;;;;;;;4.03;2.20;;;;;;;12.48;63.80;96479.16;5051847;28;20444;-67
2021/05/26 07:47:18;;;;;;;8.80;2.10;;;;;;;11.81;65.34;96478.97;5051534;28;20197;-66
2021/05/26 07:49:44;;;;;;;5.77;2.10;;;;;;;11.63;66.06;96483.69;5043682;28;20182;-65
2021/05/26 07:52:12;;;;;;;10.70;2.73;;;;;;;12.44;63.94;96491.00;5049698;28;20229;-66
2021/05/26 07:54:38;;;;;;;6.97;2.27;;;;;;;12.06;64.27;96483.19;5043621;28;20582;-67
2021/05/26 07:57:05;;;;;;;7.10;2.33;;;;;;;12.19;63.58;96485.22;5051424;28;20433;-66
2021/05/26 07:59:30;;;;;;;6.17;2.27;;;;;;;12.22;63.32;96490.91;5052376;28;20270;-68
2021/05/26 08:01:56;;;;;;;10.90;1.90;;;;;;;11.53;64.66;96484.78;5038850;28;20486;-66
2021/05/26 08:04:22;;;;;;;5.37;2.10;;;;;;;12.05;63.95;96484.19;5051293;28;20203;-66
2021/05/26 08:06:47;;;;;;;5.37;1.80;;;;;;;11.62;64.52;96476.81;5051473;28;20270;-66
2021/05/26 08:09:13;;;;;;;3.37;2.00;;;;;;;11.73;65.78;96483.47;5050523;28;20186;-66
2021/05/26 08:11:39;;;;;;;4.53;1.87;;;;;;;12.38;63.73;96474.16;5051641;28;20256;-66
2021/05/26 08:14:05;;;;;;;3.23;1.80;;;;;;;11.68;64.43;96457.75;5050717;28;20697;-67
2021/05/26 08:16:30;;;;;;;6.00;2.20;;;;;;;11.57;65.19;96469.47;5051645;28;20422;-67
2021/05/26 08:18:56;;;;;;;8.47;2.30;;;;;;;12.75;62.99;96472.41;5051569;28;20239;-68
2021/05/26 08:21:22;;;;;;;11.30;3.03;;;;;;;12.29;63.74;96475.25;5051534;28;20862;-68
2021/05/26 08:23:47;;;;;;;14.60;2.67;;;;;;;12.51;63.29;96472.69;5051470;28;20238;-67
2021/05/26 08:26:21;;;;;;;23.90;4.63;;;;;;;12.26;64.05;96475.59;5050663;28;20194;-68
2021/05/26 08:28:47;;;;;;;15.23;3.10;;;;;;;12.61;62.94;96470.59;5046266;28;20191;-67
2021/05/26 08:31:12;;;;;;;12.93;2.13;;;;;;;12.14;64.50;96473.44;5050223;28;20426;-65
2021/05/26 08:33:40;;;;;;;3.13;2.37;;;;;;;12.09;64.13;96473.16;5052001;28;20460;-66
2021/05/26 08:36:06;;;;;;;8.23;2.80;;;;;;;12.52;63.31;96469.91;5057001;28;20186;-65
2021/05/26 08:38:32;;;;;;;4.37;2.20;;;;;;;12.46;63.81;96472.44;5055913;28;20425;-67
2021/05/26 08:40:58;;;;;;;5.53;2.03;;;;;;;12.10;63.16;96474.78;5055957;28;20444;-67
2021/05/26 08:43:24;;;;;;;6.63;2.90;;;;;;;12.08;64.39;96468.06;5053841;28;20565;-67
2021/05/26 08:45:49;;;;;;;3.43;2.30;;;;;;;12.10;64.51;96466.09;5054260;28;20705;-66
2021/05/26 08:48:17;;;;;;;10.20;2.43;;;;;;;12.27;63.84;96470.19;5053942;28;20464;-66
2021/05/26 08:50:45;;;;;;;8.33;2.57;;;;;;;12.07;64.09;96484.81;5053144;28;20175;-67
2021/05/26 08:53:11;;;;;;;4.50;2.23;;;;;;;12.40;63.03;96477.41;5055122;28;20417;-66
2021/05/26 08:55:37;;;;;;;13.20;3.13;;;;;;;12.29;63.99;96485.75;5056185;28;20782;-66
2021/05/26 08:58:03;;;;;;;7.73;2.90;;;;;;;12.48;63.42;96478.31;5060888;28;20425;-66
2021/05/26 09:00:28;;;;;;;6.00;2.70;;;;;;;12.47;62.72;96476.72;5056852;28;20281;-66
2021/05/26 09:02:55;;;;;;;9.40;3.20;;;;;;;13.12;61.95;96475.03;5056347;28;20275;-66
2021/05/26 09:05:26;;;;;;;7.37;2.30;;;;;;;11.98;63.56;96469.16;5055478;28;20774;-67
2021/05/26 09:07:52;;;;;;;6.87;2.83;;;;;;;12.33;63.47;96473.91;5055845;28;20904;-66
2021/05/26 09:10:18;;;;;;;6.47;2.80;;;;;;;11.64;65.24;96477.47;5055397;28;20931;-66
2021/05/26 09:12:44;;;;;;;10.00;2.50;;;;;;;12.13;63.16;96465.75;5055716;28;20428;-68
2021/05/26 09:15:15;;;;;;;7.60;2.50;;;;;;;12.14;63.37;96473.44;5054471;28;20229;-67
2021/05/26 09:17:42;;;;;;;7.53;2.50;;;;;;;12.63;62.88;96463.34;5055827;28;20414;-64
2021/05/26 09:20:28;;;;;;;11.80;2.40;;;;;;;13.02;61.02;96464.81;5052249;28;20456;-65
2021/05/26 09:23:18;;;;;;;8.23;2.47;;;;;;;12.71;61.94;96458.00;5055127;28;20488;-67
2021/05/26 09:25:49;;;;;;;6.80;2.20;;;;;;;12.50;62.78;96465.81;5045633;28;20425;-66
2021/05/26 09:28:29;;;;;;;9.73;2.60;;;;;;;11.81;64.07;96460.59;5052578;28;20418;-66
2021/05/26 09:30:57;;;;;;;3.00;2.07;;;;;;;12.35;62.74;96461.38;5050021;28;20518;-67
2021/05/26 09:33:30;;;;;;;2.80;2.00;;;;;;;11.91;63.16;96464.75;5038486;28;20422;-67
2021/05/26 09:36:18;;;;;;;4.27;2.40;;;;;;;12.06;64.45;96470.88;5051484;28;20782;-67
2021/05/26 09:39:07;;;;;;;10.10;3.80;;;;;;;12.39;63.04;96464.47;5037420;28;20417;-65
2021/05/26 09:41:34;;;;;;;9.30;2.20;;;;;;;11.86;63.96;96482.84;5051067;28;20469;-65
2021/05/26 09:44:03;;;;;;;3.20;1.80;;;;;;;12.40;63.61;96456.41;5052514;28;20791;-65
2021/05/26 09:46:30;;;;;;;5.80;1.90;;;;;;;12.35;63.17;96485.03;5039203;28;20548;-64
2021/05/26 09:49:08;;;;;;;4.20;1.70;;;;;;;11.92;62.96;96466.41;5053177;28;20422;-66
2021/05/26 09:51:46;;;;;;;2.73;1.63;;;;;;;12.53;61.41;96463.66;5052878;28;20906;-68
2021/05/26 09:54:32;;;;;;;3.50;1.57;;;;;;;12.97;61.22;96461.94;5052150;28;20457;-66
2021/05/26 09:57:06;;;;;;;2.33;1.50;;;;;;;12.71;61.69;96467.69;5054174;28;20434;-67
2021/05/26 09:59:32;;;;;;;5.03;1.50;;;;;;;12.41;61.07;96471.16;5054762;28;20463;-66
2021/05/26 10:01:58;;;;;;;2.80;1.60;;;;;;;11.97;62.80;96477.19;5053196;28;20453;-66
2021/05/26 10:04:25;;;;;;;1.93;1.00;;;;;;;12.18;62.45;96473.06;5053207;28;20451;-67
2021/05/26 10:06:53;;;;;;;2.53;1.40;;;;;;;12.51;61.63;96462.19;5054455;28;20189;-67
2021/05/26 10:09:23;;;;;;;2.13;1.37;;;;;;;12.94;60.42;96470.19;5055299;28;20448;-68
2021/05/26 10:11:56;;;;;;;3.80;1.93;;;;;;;12.45;62.30;96484.75;5060901;28;20797;-69
2021/05/26 10:14:23;;;;;;;4.43;1.40;;;;;;;12.63;61.52;96471.25;5043890;28;20974;-66
2021/05/26 10:16:51;;;;;;;3.73;1.50;;;;;;;13.06;60.81;96476.59;5056103;28;20417;-66
2021/05/26 10:19:17;;;;;;;2.53;1.10;;;;;;;12.44;61.38;96478.69;5054899;28;20433;-67
2021/05/26 10:21:46;;;;;;;3.30;0.93;;;;;;;12.89;60.48;96469.94;5055414;28;20477;-67
2021/05/26 10:24:17;;;;;;;2.30;1.37;;;;;;;13.17;61.10;96456.06;5057098;28;20937;-67
2021/05/26 10:27:21;;;;;;;3.53;1.23;;;;;;;12.33;61.76;96476.53;5065155;28;20425;-67
2021/05/26 10:29:42;;;;;;;2.27;1.43;;;;;;;13.27;59.27;96476.81;5063409;28;20418;-67
2021/05/26 10:32:12;;;;;;;4.17;1.13;;;;;;;13.06;59.46;96471.34;5060469;28;20418;-67
2021/05/26 10:34:46;;;;;;;2.87;1.43;;;;;;;12.21;60.67;96473.53;5050596;28;20545;-66
2021/05/26 10:37:28;;;;;;;2.17;1.10;;;;;;;12.65;60.96;96463.19;5011275;28;20484;-66
2021/05/26 10:39:54;;;;;;;3.47;1.50;;;;;;;12.65;59.98;96485.03;5055331;28;20428;-65
2021/05/26 10:42:34;;;;;;;1.47;1.37;;;;;;;12.41;61.20;96473.00;5052588;28;20462;-65
2021/05/26 10:44:59;;;;;;;2.13;1.10;;;;;;;13.26;58.76;96472.56;5045314;28;21032;-67
2021/05/26 10:47:37;;;;;;;4.70;1.10;;;;;;;13.23;58.47;96470.28;5051717;28;20450;-66
2021/05/26 10:50:26;;;;;;;1.40;1.00;;;;;;;12.49;60.50;96478.16;5052483;28;20556;-66
2021/05/26 10:52:55;;;;;;;4.13;1.10;;;;;;;12.86;59.43;96476.38;5046737;28;20429;-67
2021/05/26 10:55:38;;;;;;;2.47;1.20;;;;;;;13.10;58.70;96474.41;5019288;28;20438;-66
2021/05/26 10:58:34;;;;;;;2.00;1.33;;;;;;;13.43;58.73;96481.03;5045180;28;20512;-65
2021/05/26 11:01:00;;;;;;;3.03;1.30;;;;;;;13.32;58.40;96470.00;5051973;28;20513;-65
2021/05/26 11:05:51;;;;;;;4.27;1.50;;;;;;;13.74;57.81;96472.81;5053188;28;20240;-67
2021/05/26 11:08:55;;;;;;;2.67;1.80;;;;;;;13.28;59.04;96468.72;5044845;28;20191;-66
2021/05/26 11:11:24;;;;;;;1.93;1.53;;;;;;;13.92;57.69;96469.72;5052919;28;20428;-67
2021/05/26 11:16:54;;;;;;;1.87;1.10;;;;;;;13.74;56.31;96461.44;5040722;28;20453;-68
2021/05/26 11:19:23;;;;;;;5.83;1.20;;;;;;;14.19;56.32;96463.78;5051871;28;20807;-67
2021/05/26 11:21:56;;;;;;;12.43;1.63;;;;;;;13.91;55.84;96473.34;5033307;28;20461;-65
2021/05/26 11:24:26;;;;;;;3.93;1.67;;;;;;;14.19;55.75;96467.25;5049317;28;20441;-67
2021/05/26 11:26:51;;;;;;;1.70;1.30;;;;;;;13.85;56.60;96457.50;5052486;28;20418;-67
2021/05/26 11:29:35;;;;;;;3.00;1.50;;;;;;;13.92;56.30;96453.91;5051659;28;20432;-68
2021/05/26 11:32:08;;;;;;;2.70;1.20;;;;;;;13.76;56.52;96451.53;5050656;28;20175;-65
2021/05/26 11:34:34;;;;;;;2.40;0.87;;;;;;;13.94;56.23;96441.38;5048150;28;20436;-67
2021/05/26 11:37:01;;;;;;;3.00;1.00;;;;;;;13.32;57.31;96459.47;5043474;28;20422;-66
2021/05/26 11:39:27;;;;;;;5.57;2.57;;;;;;;14.18;55.45;96439.28;5050611;28;20895;-65
2021/05/26 11:42:17;;;;;;;2.80;1.23;;;;;;;13.91;55.40;96456.75;5050368;28;20465;-65
2021/05/26 11:44:52;;;;;;;1.93;1.20;;;;;;;14.22;55.59;96448.44;5041978;28;20477;-65